Decoded Metar for KGEY (GREYBULL in WY, USA) (IATA:GEY) | Meteo·Mobile Aviation Weather
aviador You're here:

KGEY Decoded Metar

GREYBULL in WY, USA
Report Time2018-12-14 15:53:00
UTC Time2018-12-14 16:50:45
Flight Rules vfr VFR
Wind140° at 03 kt
W.Decomp.*RWY 16: 2.5 kt HW 1.7 kt LCW
RWY 07: 1.7 kt HW 2.5 kt RCW
W.Rank140° ranks 8
Current wind is below 140° avg. (5.2)
Visibility9999 m
Phenomena:N/A
Clouds:N/A
Expected CloudBase > 400 ft AGL from Temp-Dew spread
CeilingNone
Temp-12°C (ISA -19)
Dew Point-13°C (92% RH)
AAT-16.3°C
QNH1025 hPa
Density Alt1,152 ft
Elevation3,907 ft
Report Wrong Elevation
Raw Report
KGEY 141553Z AUTO 14003KT 10SM CLR M12/M13 A3028 RMK AO2 SLP315
T11171133=

Extra information for KGEY:More info

Metar Taf Metar & Taf Last 4 Metars F.Rules Stats Wind Profile Meteogram Temp Stats Airport Information Weather charts Add Link Nearby VenuesMetar ALERT Operation Metar Decoded Social comments

AIRNAV info for KGEY